< < Back
Terminal Aerodrome Forecast


Current Version              Previous Versions:   1  2  3  4  5  6  7  8  9  

Terminal Aerodrome Forecast

355
FTUS44 KMOB 181700
TAFMOB
TAF
KMOB 181721Z 1818/1918 04014G21KT 5SM BR SCT009 OVC014
      TEMPO 1818/1820 5SM -RA BR BKN009
     FM190100 36012KT P6SM BKN030
     FM190600 36005KT 4SM BR BKN007
     FM191500 35011KT P6SM SKC=



Latest METAR

033
SAUS80 KWBC 182300 RRA
MTRMOB
METAR KMOB 182256Z 36009KT 10SM SCT012 BKN022 OVC037 16/14 A3005 RMK AO2
SLP174 T01560139


USA.gov is the U.S. government's official web portal to all federal, state and local government web resources and services.